createdAt,value
2023-02-22T00:00:46.566Z,43.10
2023-02-22T00:01:46.659Z,47.10
2023-02-22T00:02:46.604Z,40.90
2023-02-22T00:03:46.572Z,42.40
2023-02-22T00:04:46.513Z,37.60
2023-02-22T00:05:46.554Z,36.20
2023-02-22T00:06:46.496Z,41.50
2023-02-22T00:07:46.503Z,39.30
2023-02-22T00:08:46.466Z,39.80
2023-02-22T00:09:46.513Z,42.90
2023-02-22T00:10:46.456Z,38.20
2023-02-22T00:11:46.469Z,38.50
2023-02-22T00:12:46.480Z,40.90
2023-02-22T00:13:46.440Z,37.50
2023-02-22T00:14:46.406Z,40.10
2023-02-22T00:15:46.438Z,43.70
2023-02-22T00:16:46.396Z,37.00
2023-02-22T00:17:46.413Z,38.80
2023-02-22T00:18:46.353Z,40.80
2023-02-22T00:19:46.577Z,38.30
2023-02-22T00:20:46.345Z,38.00
2023-02-22T00:21:46.355Z,36.30
2023-02-22T00:22:46.349Z,36.00
2023-02-22T00:23:46.353Z,37.90
2023-02-22T00:24:46.314Z,34.20
2023-02-22T00:25:46.314Z,32.40
2023-02-22T00:26:46.287Z,30.30
2023-02-22T00:27:46.286Z,31.00
2023-02-22T00:28:46.251Z,28.50
2023-02-22T00:29:46.274Z,27.60
2023-02-22T00:30:46.238Z,28.80
2023-02-22T00:31:46.279Z,29.90
2023-02-22T00:32:46.369Z,28.30
2023-02-22T00:33:46.240Z,31.40
2023-02-22T00:34:46.225Z,30.00
2023-02-22T00:35:46.189Z,29.50
2023-02-22T00:36:46.187Z,32.20
2023-02-22T00:37:46.169Z,31.50
2023-02-22T00:38:46.130Z,29.70
2023-02-22T00:39:46.508Z,28.90
2023-02-22T00:40:46.118Z,28.30
2023-02-22T00:41:46.264Z,28.00
2023-02-22T00:42:46.092Z,28.90
2023-02-22T00:43:46.122Z,29.20
2023-02-22T00:44:46.059Z,25.20
2023-02-22T00:45:46.093Z,25.40
2023-02-22T00:46:46.056Z,27.20
2023-02-22T00:47:46.066Z,24.00
2023-02-22T00:48:46.076Z,26.00
2023-02-22T00:49:46.070Z,25.00
2023-02-22T00:50:46.009Z,26.80
2023-02-22T00:51:46.012Z,26.70
2023-02-22T00:52:45.987Z,25.40
2023-02-22T00:53:45.986Z,27.30
2023-02-22T00:54:45.956Z,28.20
2023-02-22T00:55:45.984Z,26.00
2023-02-22T00:56:45.937Z,25.60
2023-02-22T00:57:45.946Z,27.40
2023-02-22T00:58:45.911Z,26.60
2023-02-22T00:59:45.941Z,27.70
2023-02-22T01:00:45.920Z,26.40
2023-02-22T01:01:46.016Z,25.50
2023-02-22T01:02:45.867Z,25.90
2023-02-22T01:03:45.890Z,24.30
2023-02-22T01:04:45.853Z,24.90
2023-02-22T01:05:45.880Z,25.60
2023-02-22T01:06:45.837Z,24.10
2023-02-22T01:07:45.828Z,25.20
2023-02-22T01:08:45.826Z,25.20
2023-02-22T01:09:45.812Z,25.40
2023-02-22T01:10:45.786Z,26.00
2023-02-22T01:11:45.802Z,24.80
2023-02-22T01:12:45.763Z,25.70
2023-02-22T01:13:45.764Z,26.00
2023-02-22T01:14:45.741Z,25.90
2023-02-22T01:15:45.755Z,25.50
2023-02-22T01:16:45.731Z,27.30
2023-02-22T01:17:45.735Z,26.20
2023-02-22T01:18:45.696Z,26.30
2023-02-22T01:19:45.719Z,24.10
2023-02-22T01:20:45.663Z,27.40
2023-02-22T01:21:45.704Z,24.90
2023-02-22T01:22:45.667Z,26.00
2023-02-22T01:23:45.661Z,25.40
2023-02-22T01:24:45.657Z,23.90
2023-02-22T01:25:45.699Z,25.10
2023-02-22T01:26:45.623Z,23.20
2023-02-22T01:27:45.643Z,24.40
2023-02-22T01:28:45.592Z,24.20
2023-02-22T01:29:45.602Z,23.00
2023-02-22T01:30:45.680Z,22.50
2023-02-22T01:31:45.619Z,22.70
2023-02-22T01:32:45.591Z,22.30
2023-02-22T01:33:45.558Z,22.10
2023-02-22T01:34:45.524Z,22.50
2023-02-22T01:35:45.568Z,23.20
2023-02-22T01:36:45.558Z,21.10
2023-02-22T01:37:46.069Z,22.30
2023-02-22T01:38:45.499Z,21.90
2023-02-22T01:39:45.515Z,23.70
2023-02-22T01:40:45.579Z,21.70
2023-02-22T01:41:45.583Z,21.60
2023-02-22T01:42:45.486Z,22.40
2023-02-22T01:43:45.710Z,20.30
2023-02-22T01:44:45.407Z,20.10
2023-02-22T01:45:45.486Z,20.50
2023-02-22T01:46:45.450Z,18.40
2023-02-22T01:47:45.399Z,19.90
2023-02-22T01:48:45.382Z,18.40
2023-02-22T01:49:45.387Z,18.20
2023-02-22T01:50:45.348Z,18.60
2023-02-22T01:51:45.378Z,18.30
2023-02-22T01:52:45.333Z,18.50
2023-02-22T01:53:45.357Z,18.90
2023-02-22T01:54:45.284Z,18.90
2023-02-22T01:55:45.307Z,18.90
2023-02-22T01:56:45.307Z,20.30
2023-02-22T01:57:45.273Z,18.90
2023-02-22T01:58:45.273Z,19.40
2023-02-22T01:59:45.274Z,18.90
2023-02-22T02:00:45.255Z,19.50
2023-02-22T02:01:45.806Z,19.00
2023-02-22T02:02:45.226Z,18.00
2023-02-22T02:03:45.232Z,17.90
2023-02-22T02:04:45.243Z,18.90
2023-02-22T02:05:45.182Z,19.40
2023-02-22T02:06:45.187Z,19.10
2023-02-22T02:07:45.164Z,17.70
2023-02-22T02:08:45.174Z,18.50
2023-02-22T02:09:45.136Z,18.10
2023-02-22T02:10:45.158Z,17.50
2023-02-22T02:11:45.100Z,18.50
2023-02-22T02:12:45.113Z,17.40
2023-02-22T02:13:45.094Z,17.30
2023-02-22T02:14:45.120Z,17.90
2023-02-22T02:15:45.064Z,17.00
2023-02-22T02:16:45.116Z,18.50
2023-02-22T02:17:45.044Z,18.20
2023-02-22T02:18:45.058Z,20.00
2023-02-22T02:19:45.048Z,22.40
2023-02-22T02:20:45.033Z,22.80
2023-02-22T02:21:45.009Z,21.90
2023-02-22T02:22:45.069Z,22.70
2023-02-22T02:23:44.973Z,21.60
2023-02-22T02:24:45.018Z,21.20
2023-02-22T02:25:44.982Z,21.60
2023-02-22T02:26:45.012Z,21.90
2023-02-22T02:27:44.953Z,21.40
2023-02-22T02:28:44.957Z,21.70
2023-02-22T02:29:44.926Z,20.00
2023-02-22T02:30:44.958Z,20.80
2023-02-22T02:31:44.994Z,21.50
2023-02-22T02:32:44.943Z,20.70
2023-02-22T02:33:44.880Z,20.60
2023-02-22T02:34:45.552Z,20.70
2023-02-22T02:35:44.847Z,20.90
2023-02-22T02:36:44.866Z,20.30
2023-02-22T02:37:44.853Z,23.20
2023-02-22T02:38:44.874Z,21.70
2023-02-22T02:39:44.836Z,20.70
2023-02-22T02:40:44.882Z,19.90
2023-02-22T02:41:44.825Z,19.00
2023-02-22T02:42:44.814Z,21.90
2023-02-22T02:43:44.772Z,20.10
2023-02-22T02:44:44.808Z,20.30
2023-02-22T02:45:44.750Z,21.00
2023-02-22T02:46:44.771Z,20.80
2023-02-22T02:47:44.725Z,22.20
2023-02-22T02:48:44.744Z,18.60
2023-02-22T02:49:44.721Z,21.00
2023-02-22T02:50:44.722Z,21.00
2023-02-22T02:51:44.698Z,19.60
2023-02-22T02:52:44.707Z,21.10
2023-02-22T02:53:44.663Z,20.70
2023-02-22T02:54:44.670Z,21.70
2023-02-22T02:55:44.697Z,20.10
2023-02-22T02:56:44.670Z,24.40
2023-02-22T02:57:44.629Z,25.30
2023-02-22T02:58:44.630Z,27.20
2023-02-22T02:59:44.595Z,25.50
2023-02-22T03:00:44.604Z,23.80
2023-02-22T03:01:44.695Z,24.60
2023-02-22T03:02:44.612Z,25.10
2023-02-22T03:03:44.710Z,25.00
2023-02-22T03:04:44.565Z,22.70
2023-02-22T03:05:44.528Z,20.70
2023-02-22T03:06:44.553Z,22.20
2023-02-22T03:07:44.563Z,20.80
2023-02-22T03:08:44.532Z,20.60
2023-02-22T03:09:44.756Z,21.70
2023-02-22T03:10:44.868Z,20.20
2023-02-22T03:11:44.507Z,22.20
2023-02-22T03:12:44.884Z,21.80
2023-02-22T03:13:44.879Z,21.00
2023-02-22T03:14:44.790Z,20.60
2023-02-22T03:15:44.438Z,19.80
2023-02-22T03:16:44.555Z,20.70
2023-02-22T03:17:44.403Z,19.50
2023-02-22T03:18:44.509Z,19.80
2023-02-22T03:19:44.381Z,19.70
2023-02-22T03:20:44.404Z,20.10
2023-02-22T03:21:44.352Z,20.70
2023-02-22T03:22:44.755Z,19.20
2023-02-22T03:23:44.340Z,17.50
2023-02-22T03:24:44.387Z,18.90
2023-02-22T03:25:44.318Z,18.00
2023-02-22T03:26:44.370Z,18.20
2023-02-22T03:27:44.291Z,17.30
2023-02-22T03:28:44.329Z,18.30
2023-02-22T03:29:44.261Z,18.10
2023-02-22T03:30:44.288Z,17.10
2023-02-22T03:31:44.727Z,17.60
2023-02-22T03:32:44.249Z,19.40
2023-02-22T03:33:44.231Z,17.70
2023-02-22T03:34:44.228Z,17.50
2023-02-22T03:35:44.223Z,17.70
2023-02-22T03:36:44.329Z,18.30
2023-02-22T03:37:44.181Z,17.50
2023-02-22T03:38:44.201Z,16.50
2023-02-22T03:39:44.198Z,18.40
2023-02-22T03:40:44.179Z,18.50
2023-02-22T03:41:44.181Z,17.50
2023-02-22T03:42:44.162Z,17.30
2023-02-22T03:43:44.139Z,17.70
2023-02-22T03:44:44.451Z,17.30
2023-02-22T03:45:44.095Z,17.80
2023-02-22T03:46:44.146Z,17.30
2023-02-22T03:47:44.088Z,17.20
2023-02-22T03:48:44.086Z,16.80
2023-02-22T03:49:44.038Z,16.90
2023-02-22T03:50:44.099Z,17.80
2023-02-22T03:51:44.029Z,17.60
2023-02-22T03:52:44.278Z,18.10
2023-02-22T03:53:44.050Z,18.40
2023-02-22T03:54:44.008Z,17.00
2023-02-22T03:55:43.976Z,17.20
2023-02-22T03:56:43.988Z,18.20
2023-02-22T03:57:43.979Z,17.40
2023-02-22T03:58:44.050Z,18.00
2023-02-22T03:59:43.931Z,17.30
2023-02-22T04:00:43.937Z,16.80
2023-02-22T04:01:43.925Z,17.10
2023-02-22T04:02:44.013Z,17.60
2023-02-22T04:03:44.016Z,18.10
2023-02-22T04:04:44.304Z,17.50
2023-02-22T04:05:43.856Z,17.40
2023-02-22T04:06:43.887Z,18.80
2023-02-22T04:07:43.849Z,18.70
2023-02-22T04:08:43.866Z,18.20
2023-02-22T04:09:43.824Z,18.60
2023-02-22T04:10:43.877Z,19.50
2023-02-22T04:11:43.802Z,18.80
2023-02-22T04:12:43.826Z,18.60
2023-02-22T04:13:43.785Z,17.60
2023-02-22T04:14:43.891Z,18.10
2023-02-22T04:15:43.841Z,18.40
2023-02-22T04:16:43.775Z,17.70
2023-02-22T04:17:43.745Z,17.60
2023-02-22T04:18:43.822Z,18.20
2023-02-22T04:19:43.735Z,17.40
2023-02-22T04:20:43.727Z,17.80
2023-02-22T04:21:43.724Z,18.00
2023-02-22T04:22:43.714Z,17.90
2023-02-22T04:23:43.675Z,17.90
2023-02-22T04:24:44.395Z,18.60
2023-02-22T04:25:43.679Z,18.10
2023-02-22T04:26:43.665Z,18.60
2023-02-22T04:27:43.627Z,17.90
2023-02-22T04:28:43.640Z,18.30
2023-02-22T04:29:43.624Z,17.20
2023-02-22T04:30:43.644Z,18.90
2023-02-22T04:31:43.570Z,23.20
2023-02-22T04:32:43.598Z,22.20
2023-02-22T04:33:43.554Z,21.10
2023-02-22T04:34:43.585Z,22.80
2023-02-22T04:35:43.535Z,21.80
2023-02-22T04:36:43.637Z,25.50
2023-02-22T04:37:43.821Z,25.30
2023-02-22T04:38:43.531Z,26.70
2023-02-22T04:39:43.577Z,27.10
2023-02-22T04:40:43.511Z,25.30
2023-02-22T04:41:43.481Z,24.00
2023-02-22T04:42:43.491Z,23.80
2023-02-22T04:43:43.500Z,26.30
2023-02-22T04:44:43.484Z,28.60
2023-02-22T04:45:43.497Z,24.50
2023-02-22T04:46:43.547Z,23.40
2023-02-22T04:47:43.404Z,25.60
2023-02-22T04:48:43.420Z,25.40
2023-02-22T04:49:43.399Z,25.00
2023-02-22T04:50:43.516Z,25.20
2023-02-22T04:51:43.377Z,24.40
2023-02-22T04:52:43.396Z,26.20
2023-02-22T04:53:43.534Z,24.20
2023-02-22T04:54:43.360Z,25.90
2023-02-22T04:55:43.329Z,23.00
2023-02-22T04:56:43.329Z,24.10
2023-02-22T04:57:43.315Z,23.50
2023-02-22T04:58:43.300Z,26.50
2023-02-22T04:59:43.279Z,23.30
2023-02-22T05:00:43.301Z,23.40
2023-02-22T05:01:43.269Z,23.60
2023-02-22T05:02:43.354Z,24.50
2023-02-22T05:03:43.231Z,23.70
2023-02-22T05:04:43.361Z,23.20
2023-02-22T05:05:43.315Z,22.90
2023-02-22T05:06:43.427Z,22.40
2023-02-22T05:07:43.192Z,23.30
2023-02-22T05:08:43.198Z,21.50
2023-02-22T05:09:43.541Z,21.50
2023-02-22T05:10:43.199Z,21.50
2023-02-22T05:11:43.159Z,24.80
2023-02-22T05:12:43.167Z,23.70
2023-02-22T05:13:43.148Z,25.60
2023-02-22T05:14:43.246Z,23.90
2023-02-22T05:15:43.135Z,23.70
2023-02-22T05:16:43.837Z,22.60
2023-02-22T05:17:43.385Z,22.70
2023-02-22T05:18:43.612Z,22.70
2023-02-22T05:19:43.047Z,22.90
2023-02-22T05:20:43.071Z,22.70
2023-02-22T05:21:43.085Z,21.70
2023-02-22T05:22:43.118Z,22.30
2023-02-22T05:23:43.068Z,21.20
2023-02-22T05:24:43.025Z,21.20
2023-02-22T05:25:42.988Z,21.30
2023-02-22T05:26:43.056Z,21.60
2023-02-22T05:27:42.978Z,20.10
2023-02-22T05:28:42.992Z,20.60
2023-02-22T05:29:42.932Z,21.00
2023-02-22T05:30:43.007Z,19.80
2023-02-22T05:31:43.035Z,20.80
2023-02-22T05:32:42.943Z,19.90
2023-02-22T05:33:42.922Z,19.00
2023-02-22T05:34:42.925Z,20.40
2023-02-22T05:35:42.884Z,20.50
2023-02-22T05:36:42.916Z,20.60
2023-02-22T05:37:42.945Z,20.30
2023-02-22T05:38:42.875Z,18.00
2023-02-22T05:39:42.834Z,19.10
2023-02-22T05:40:42.846Z,19.70
2023-02-22T05:41:42.980Z,20.10
2023-02-22T05:42:42.847Z,20.80
2023-02-22T05:43:42.986Z,19.90
2023-02-22T05:44:42.806Z,20.10
2023-02-22T05:45:42.797Z,20.30
2023-02-22T05:46:42.844Z,19.90
2023-02-22T05:47:42.992Z,19.30
2023-02-22T05:48:42.755Z,19.60
2023-02-22T05:49:42.802Z,19.60
2023-02-22T05:50:42.847Z,19.40
2023-02-22T05:51:42.714Z,19.90
2023-02-22T05:52:42.737Z,18.90
2023-02-22T05:53:42.708Z,19.60
2023-02-22T05:54:42.736Z,19.50
2023-02-22T05:55:43.357Z,19.40
2023-02-22T05:56:42.713Z,18.60
2023-02-22T05:57:42.662Z,18.90
2023-02-22T05:58:42.675Z,18.80
2023-02-22T05:59:42.754Z,18.70
2023-02-22T06:00:42.637Z,18.30
2023-02-22T06:01:42.606Z,19.00
2023-02-22T06:02:42.623Z,18.50
2023-02-22T06:03:42.634Z,18.70
2023-02-22T06:04:42.579Z,18.00
2023-02-22T06:05:42.632Z,18.30
2023-02-22T06:06:42.637Z,18.30
2023-02-22T06:07:42.550Z,17.10
2023-02-22T06:08:42.621Z,18.30
2023-02-22T06:09:42.513Z,17.40
2023-02-22T06:10:42.508Z,17.90
2023-02-22T06:11:42.535Z,17.80
2023-02-22T06:12:42.656Z,18.20
2023-02-22T06:13:42.665Z,17.70
2023-02-22T06:14:42.465Z,16.70
2023-02-22T06:15:42.465Z,18.50
2023-02-22T06:16:42.427Z,17.20
2023-02-22T06:17:42.444Z,17.40
2023-02-22T06:18:42.436Z,16.30
2023-02-22T06:19:42.425Z,16.60
2023-02-22T06:20:42.407Z,17.40
2023-02-22T06:21:42.397Z,17.20
2023-02-22T06:22:42.398Z,18.30
2023-02-22T06:23:42.428Z,18.10
2023-02-22T06:24:42.335Z,17.20
2023-02-22T06:25:42.352Z,17.40
2023-02-22T06:26:42.335Z,17.00
2023-02-22T06:27:42.670Z,17.60
2023-02-22T06:28:42.682Z,18.50
2023-02-22T06:29:42.309Z,17.90
2023-02-22T06:30:42.317Z,17.50
2023-02-22T06:31:42.388Z,17.40
2023-02-22T06:32:42.270Z,17.80
2023-02-22T06:33:42.612Z,17.60
2023-02-22T06:34:42.229Z,18.00
2023-02-22T06:35:42.277Z,17.70
2023-02-22T06:36:42.216Z,18.40
2023-02-22T06:37:42.213Z,17.90
2023-02-22T06:38:42.519Z,19.00
2023-02-22T06:39:42.212Z,19.00
2023-02-22T06:40:42.181Z,20.10
2023-02-22T06:41:42.183Z,17.40
2023-02-22T06:42:42.149Z,17.20
2023-02-22T06:43:42.160Z,17.10
2023-02-22T06:44:42.125Z,18.60
2023-02-22T06:45:42.176Z,17.90
2023-02-22T06:46:42.102Z,18.90
2023-02-22T06:47:42.406Z,18.40
2023-02-22T06:48:42.084Z,21.50
2023-02-22T06:49:42.399Z,24.20
2023-02-22T06:50:42.080Z,23.80
2023-02-22T06:51:42.076Z,22.00
2023-02-22T06:52:42.064Z,20.90
2023-02-22T06:53:42.052Z,22.00
2023-02-22T06:54:42.020Z,19.80
2023-02-22T06:55:42.242Z,22.10
2023-02-22T06:56:41.993Z,24.50
2023-02-22T06:57:42.000Z,25.70
2023-02-22T06:58:41.974Z,25.70
2023-02-22T06:59:41.976Z,25.50
2023-02-22T07:00:41.996Z,22.40
2023-02-22T07:01:42.000Z,22.90
2023-02-22T07:02:41.919Z,23.70
2023-02-22T07:03:41.982Z,23.30
2023-02-22T07:04:43.553Z,27.90
2023-02-22T07:05:42.222Z,26.80
2023-02-22T07:06:42.305Z,27.90
2023-02-22T07:07:42.706Z,24.10
2023-02-22T07:08:42.009Z,27.90
2023-02-22T07:09:42.191Z,26.10
2023-02-22T07:10:41.849Z,23.90
2023-02-22T07:11:41.869Z,22.40
2023-02-22T07:12:41.821Z,23.30
2023-02-22T07:13:41.846Z,25.70
2023-02-22T07:14:41.802Z,25.60
2023-02-22T07:15:41.803Z,21.90
2023-02-22T07:16:41.867Z,22.70
2023-02-22T07:17:41.780Z,22.30
2023-02-22T07:18:41.764Z,23.70
2023-02-22T07:19:41.793Z,23.80
2023-02-22T07:20:41.739Z,22.70
2023-02-22T07:21:41.761Z,22.40
2023-02-22T07:22:41.720Z,29.40
2023-02-22T07:23:41.837Z,29.70
2023-02-22T07:24:41.694Z,28.60
2023-02-22T07:25:41.693Z,32.80
2023-02-22T07:26:41.717Z,34.30
2023-02-22T07:27:41.677Z,30.10
2023-02-22T07:28:41.734Z,30.50
2023-02-22T07:29:41.752Z,33.80
2023-02-22T07:30:41.808Z,32.60
2023-02-22T07:31:41.649Z,28.20
2023-02-22T07:32:41.697Z,25.90
2023-02-22T07:33:41.612Z,26.50
2023-02-22T07:34:41.610Z,24.00
2023-02-22T07:35:41.602Z,25.40
2023-02-22T07:36:41.584Z,26.80
2023-02-22T07:37:41.575Z,26.80
2023-02-22T07:38:41.615Z,26.40
2023-02-22T07:39:41.723Z,32.80
2023-02-22T07:40:41.520Z,26.20
2023-02-22T07:41:41.534Z,27.20
2023-02-22T07:42:41.480Z,28.50
2023-02-22T07:43:41.533Z,28.10
2023-02-22T07:44:41.649Z,26.70
2023-02-22T07:45:41.641Z,26.20
2023-02-22T07:46:41.448Z,22.30
2023-02-22T07:47:41.602Z,24.30
2023-02-22T07:48:41.572Z,23.60
2023-02-22T07:49:41.689Z,22.60
2023-02-22T07:50:41.689Z,22.40
2023-02-22T07:51:41.971Z,24.20
2023-02-22T07:52:41.413Z,20.80
2023-02-22T07:53:41.389Z,21.90
2023-02-22T07:54:56.297Z,22.30
2023-02-22T07:55:41.841Z,22.00
2023-02-22T07:56:41.344Z,22.00
2023-02-22T07:57:41.351Z,22.20
2023-02-22T07:58:41.314Z,21.00
2023-02-22T07:59:41.353Z,22.10
2023-02-22T08:00:41.339Z,21.90
2023-02-22T08:01:41.312Z,22.60
2023-02-22T08:02:41.322Z,22.30
2023-02-22T08:03:41.351Z,20.90
2023-02-22T08:04:41.251Z,21.20
2023-02-22T08:05:41.289Z,20.50
2023-02-22T08:06:41.262Z,20.80
2023-02-22T08:07:41.237Z,21.00
2023-02-22T08:08:41.197Z,20.20
2023-02-22T08:09:41.238Z,21.00
2023-02-22T08:10:41.312Z,21.50
2023-02-22T08:11:41.301Z,20.90
2023-02-22T08:12:41.163Z,19.00
2023-02-22T08:13:41.251Z,18.20
2023-02-22T08:14:41.144Z,19.30
2023-02-22T08:15:41.153Z,19.40
2023-02-22T08:16:41.167Z,17.70
2023-02-22T08:17:41.137Z,18.70
2023-02-22T08:18:41.087Z,18.90
2023-02-22T08:19:41.125Z,17.70
2023-02-22T08:20:41.122Z,19.20
2023-02-22T08:21:41.089Z,18.00
2023-02-22T08:22:41.046Z,19.40
2023-02-22T08:23:41.185Z,19.10
2023-02-22T08:24:41.056Z,18.80
2023-02-22T08:25:41.067Z,18.50
2023-02-22T08:26:41.007Z,19.60
2023-02-22T08:27:41.056Z,18.60
2023-02-22T08:28:41.009Z,18.10
2023-02-22T08:29:41.013Z,18.80
2023-02-22T08:30:41.023Z,17.80
2023-02-22T08:31:41.018Z,19.30
2023-02-22T08:32:40.957Z,19.90
2023-02-22T08:33:41.043Z,20.00
2023-02-22T08:34:40.943Z,19.50
2023-02-22T08:35:40.972Z,18.30
2023-02-22T08:36:40.905Z,18.90
2023-02-22T08:37:40.908Z,18.50
2023-02-22T08:38:40.926Z,18.20
2023-02-22T08:39:40.967Z,19.00
2023-02-22T08:40:40.864Z,19.10
2023-02-22T08:41:40.855Z,19.20
2023-02-22T08:42:40.849Z,18.50
2023-02-22T08:43:40.859Z,19.60
2023-02-22T08:44:40.816Z,19.00
2023-02-22T08:45:40.922Z,18.30
2023-02-22T08:46:40.781Z,19.40
2023-02-22T08:47:40.825Z,19.40
2023-02-22T08:48:40.763Z,18.70
2023-02-22T08:49:40.781Z,20.30
2023-02-22T08:50:40.785Z,19.90
2023-02-22T08:51:40.754Z,18.70
2023-02-22T08:52:40.766Z,19.60
2023-02-22T08:53:40.792Z,19.50
2023-02-22T08:54:40.695Z,20.30
2023-02-22T08:55:40.721Z,20.40
2023-02-22T08:56:40.688Z,20.10
2023-02-22T08:57:40.688Z,19.70
2023-02-22T08:58:40.639Z,19.30
2023-02-22T08:59:40.650Z,19.90
2023-02-22T09:00:40.632Z,20.20
2023-02-22T09:01:40.659Z,20.70
2023-02-22T09:02:40.633Z,21.60
2023-02-22T09:03:40.673Z,21.40
2023-02-22T09:04:40.580Z,20.70
2023-02-22T09:05:40.673Z,20.30
2023-02-22T09:06:40.579Z,20.70
2023-02-22T09:07:40.586Z,21.20
2023-02-22T09:08:40.533Z,20.10
2023-02-22T09:09:40.561Z,22.50
2023-02-22T09:10:40.642Z,20.80
2023-02-22T09:11:40.516Z,20.30
2023-02-22T09:12:40.494Z,20.00
2023-02-22T09:13:40.502Z,19.80
2023-02-22T09:14:40.457Z,21.40
2023-02-22T09:15:40.484Z,19.20
2023-02-22T09:16:40.505Z,19.60
2023-02-22T09:17:40.470Z,20.10
2023-02-22T09:18:44.199Z,19.20
2023-02-22T09:19:40.441Z,18.80
2023-02-22T09:20:40.385Z,19.20
2023-02-22T09:21:40.406Z,18.80
2023-02-22T09:22:40.396Z,18.90
2023-02-22T09:23:40.400Z,19.30
2023-02-22T09:24:40.349Z,19.10
2023-02-22T09:25:40.380Z,18.30
2023-02-22T09:26:40.367Z,18.40
2023-02-22T09:27:40.350Z,17.80
2023-02-22T09:28:40.309Z,18.00
2023-02-22T09:29:40.320Z,18.00
2023-02-22T09:30:40.313Z,18.20
2023-02-22T09:31:41.101Z,17.00
2023-02-22T09:32:40.484Z,17.40
2023-02-22T09:33:40.271Z,18.60
2023-02-22T09:34:40.246Z,16.70
2023-02-22T09:35:40.263Z,17.70
2023-02-22T09:36:40.228Z,17.60
2023-02-22T09:37:40.250Z,17.50
2023-02-22T09:38:40.203Z,17.50
2023-02-22T09:39:40.228Z,16.60
2023-02-22T09:40:40.183Z,17.50
2023-02-22T09:41:40.205Z,16.70
2023-02-22T09:42:40.412Z,17.50
2023-02-22T09:43:40.186Z,17.30
2023-02-22T09:44:40.138Z,17.30
2023-02-22T09:45:40.179Z,17.20
2023-02-22T09:46:40.104Z,16.80
2023-02-22T09:47:40.167Z,16.50
2023-02-22T09:48:40.084Z,15.90
2023-02-22T09:49:40.136Z,15.90
2023-02-22T09:50:40.057Z,16.00
2023-02-22T09:51:40.188Z,16.10
2023-02-22T09:52:40.189Z,15.30
2023-02-22T09:53:40.044Z,15.50
2023-02-22T09:54:40.022Z,15.20
2023-02-22T09:55:40.038Z,14.30
2023-02-22T09:56:39.985Z,14.90
2023-02-22T09:57:40.023Z,14.20
2023-02-22T09:58:41.812Z,14.00
2023-02-22T09:59:39.984Z,13.60
2023-02-22T10:00:39.944Z,12.80
2023-02-22T10:01:39.993Z,13.00
2023-02-22T10:02:39.926Z,12.30
2023-02-22T10:03:39.956Z,12.30
2023-02-22T10:04:39.908Z,12.40
2023-02-22T10:05:40.040Z,12.70
2023-02-22T10:06:39.894Z,12.10
2023-02-22T10:07:40.289Z,10.60
2023-02-22T10:08:39.863Z,11.90
2023-02-22T10:09:39.864Z,11.70
2023-02-22T10:10:39.864Z,12.80
2023-02-22T10:11:39.834Z,12.80
2023-02-22T10:12:39.838Z,12.00
2023-02-22T10:13:39.920Z,12.70
2023-02-22T10:14:39.829Z,12.10
2023-02-22T10:15:39.813Z,11.80
2023-02-22T10:16:39.793Z,11.30
2023-02-22T10:17:39.774Z,11.00
2023-02-22T10:18:39.768Z,11.50
2023-02-22T10:19:39.754Z,11.00
2023-02-22T10:20:39.715Z,10.70
2023-02-22T10:21:39.737Z,10.30
2023-02-22T10:22:39.715Z,9.80
2023-02-22T10:23:39.703Z,9.30
2023-02-22T10:24:39.747Z,9.60
2023-02-22T10:25:39.692Z,9.50
2023-02-22T10:26:39.671Z,9.30
2023-02-22T10:27:39.692Z,8.80
2023-02-22T10:28:39.626Z,8.70
2023-02-22T10:29:39.630Z,8.60
2023-02-22T10:30:39.656Z,9.30
2023-02-22T10:31:39.639Z,8.90
2023-02-22T10:32:39.873Z,8.70
2023-02-22T10:33:39.578Z,8.10
2023-02-22T10:34:39.592Z,8.70
2023-02-22T10:35:39.560Z,7.40
2023-02-22T10:36:39.611Z,8.20
2023-02-22T10:37:39.652Z,8.20
2023-02-22T10:38:39.549Z,7.90
2023-02-22T10:39:39.535Z,7.60
2023-02-22T10:40:39.552Z,7.70
2023-02-22T10:41:39.491Z,7.80
2023-02-22T10:42:39.519Z,7.60
2023-02-22T10:43:39.524Z,7.20
2023-02-22T10:44:39.494Z,7.80
2023-02-22T10:45:39.457Z,7.00
2023-02-22T10:46:39.460Z,7.50
2023-02-22T10:47:39.423Z,7.10
2023-02-22T10:48:39.453Z,8.10
2023-02-22T10:49:39.413Z,7.00
2023-02-22T10:50:39.420Z,7.30
2023-02-22T10:51:39.452Z,7.10
2023-02-22T10:52:39.571Z,6.90
2023-02-22T10:53:39.507Z,7.20
2023-02-22T10:54:39.400Z,6.80
2023-02-22T10:55:39.361Z,7.10
2023-02-22T10:56:39.380Z,7.20
2023-02-22T10:57:39.325Z,6.50
2023-02-22T10:58:39.359Z,7.10
2023-02-22T10:59:39.309Z,6.30
2023-02-22T11:00:39.330Z,6.60
2023-02-22T11:01:39.325Z,7.10
2023-02-22T11:02:39.300Z,6.70
2023-02-22T11:03:39.252Z,7.40
2023-02-22T11:04:39.291Z,6.70
2023-02-22T11:05:39.233Z,6.90
2023-02-22T11:06:39.238Z,6.70
2023-02-22T11:07:39.240Z,7.00
2023-02-22T11:08:39.243Z,6.30
2023-02-22T11:09:39.199Z,6.40
2023-02-22T11:10:39.224Z,6.60
2023-02-22T11:11:39.237Z,6.90
2023-02-22T11:12:39.235Z,6.60
2023-02-22T11:13:39.234Z,7.20
2023-02-22T11:14:39.181Z,6.70
2023-02-22T11:15:39.140Z,6.60
2023-02-22T11:16:39.551Z,6.90
2023-02-22T11:17:39.089Z,6.40
2023-02-22T11:18:39.107Z,6.30
2023-02-22T11:19:39.090Z,6.70
2023-02-22T11:20:39.117Z,6.80
2023-02-22T11:21:39.043Z,7.10
2023-02-22T11:22:39.064Z,6.50
2023-02-22T11:23:39.030Z,7.00
2023-02-22T11:24:48.760Z,7.20
2023-02-22T11:25:40.022Z,6.70
2023-02-22T11:26:39.070Z,6.60
2023-02-22T11:27:38.967Z,6.20
2023-02-22T11:28:38.978Z,7.80
2023-02-22T11:29:38.980Z,5.70
2023-02-22T11:30:39.128Z,6.40
2023-02-22T11:31:39.075Z,5.80
2023-02-22T11:32:38.949Z,5.60
2023-02-22T11:33:38.907Z,5.90
2023-02-22T11:34:39.258Z,5.70
2023-02-22T11:35:39.076Z,6.30
2023-02-22T11:36:38.899Z,6.10
2023-02-22T11:37:38.887Z,6.60
2023-02-22T11:38:38.871Z,6.70
2023-02-22T11:39:38.867Z,5.80
2023-02-22T11:40:38.860Z,6.30
2023-02-22T11:41:38.815Z,6.50
2023-02-22T11:42:38.839Z,6.30
2023-02-22T11:43:38.813Z,6.00
2023-02-22T11:44:38.802Z,6.60
2023-02-22T11:45:44.209Z,6.10
2023-02-22T11:46:39.801Z,6.40
2023-02-22T11:47:38.734Z,6.30
2023-02-22T11:48:38.754Z,5.80
2023-02-22T11:49:38.716Z,6.10
2023-02-22T11:50:38.734Z,6.20
2023-02-22T11:51:38.703Z,5.40
2023-02-22T11:52:38.705Z,5.70
2023-02-22T11:53:38.699Z,6.00
2023-02-22T11:54:38.819Z,5.60
2023-02-22T11:55:43.148Z,5.20
2023-02-22T11:56:38.726Z,5.20
2023-02-22T11:57:38.638Z,5.70
2023-02-22T11:58:38.644Z,5.60
2023-02-22T11:59:38.614Z,5.70
2023-02-22T12:00:38.625Z,5.60
2023-02-22T12:01:38.597Z,5.00
2023-02-22T12:02:41.647Z,5.60
2023-02-22T12:03:39.672Z,5.30
2023-02-22T12:04:39.529Z,5.60
2023-02-22T12:05:38.547Z,5.60
2023-02-22T12:06:38.566Z,5.00
2023-02-22T12:07:38.553Z,5.30
2023-02-22T12:08:38.577Z,5.00
2023-02-22T12:09:38.485Z,5.10
2023-02-22T12:10:38.505Z,4.80
2023-02-22T12:11:38.505Z,5.30
2023-02-22T12:12:38.557Z,5.30
2023-02-22T12:13:38.451Z,5.00
2023-02-22T12:14:38.473Z,5.60
2023-02-22T12:15:38.542Z,4.90
2023-02-22T12:16:38.440Z,4.90
2023-02-22T12:17:40.202Z,5.30
2023-02-22T12:18:38.426Z,4.60
2023-02-22T12:19:38.646Z,5.30
2023-02-22T12:20:38.382Z,5.00
2023-02-22T12:21:38.418Z,4.80
2023-02-22T12:22:38.364Z,4.90
2023-02-22T12:23:38.332Z,5.00
2023-02-22T12:24:38.418Z,4.40
2023-02-22T12:25:38.314Z,4.90
2023-02-22T12:26:38.697Z,4.60
2023-02-22T12:27:38.297Z,3.90
2023-02-22T12:28:38.351Z,4.50
2023-02-22T12:29:38.286Z,4.30
2023-02-22T12:30:38.338Z,4.20
2023-02-22T12:31:38.423Z,4.10
2023-02-22T12:32:38.294Z,5.00
2023-02-22T12:33:38.258Z,4.60
2023-02-22T12:34:38.377Z,4.50
2023-02-22T12:35:38.583Z,4.40
2023-02-22T12:36:38.232Z,4.50
2023-02-22T12:37:38.185Z,4.30
2023-02-22T12:38:38.238Z,4.00
2023-02-22T12:39:51.851Z,4.00
2023-02-22T12:40:39.161Z,5.00
2023-02-22T12:41:38.143Z,4.40
2023-02-22T12:42:38.177Z,4.60
2023-02-22T12:43:38.143Z,4.00
2023-02-22T12:44:38.142Z,4.20
2023-02-22T12:45:38.130Z,4.10
2023-02-22T12:46:38.211Z,3.70
2023-02-22T12:47:38.072Z,4.70
2023-02-22T12:48:38.075Z,4.30
2023-02-22T12:49:38.047Z,4.80
2023-02-22T12:50:38.069Z,4.30
2023-02-22T12:51:38.029Z,4.30
2023-02-22T12:52:38.044Z,4.30
2023-02-22T12:53:38.017Z,4.40
2023-02-22T12:54:38.025Z,4.30
2023-02-22T12:55:37.972Z,4.40
2023-02-22T12:56:38.224Z,4.70
2023-02-22T12:57:37.962Z,4.30